Time;durP1;ratioP1;P1;durP2;ratioP2;P2;SDS_P1;SDS_P2;PMS_P1;PMS_P2;Temp;Humidity;BMP_temperature;BMP_pressure;BME280_temperature;BME280_humidity;BME280_pressure;Samples;Min_cycle;Max_cycle;Signal;HPM_P1;HPM_P2
2023/01/11 00:02:12;;;;;;;0.60;0.60;;;;;;;7.53;100.00;96301.66;4966086;28;20082;-58
2023/01/11 00:04:40;;;;;;;0.60;0.60;;;;;;;7.57;100.00;96295.03;4966074;28;20073;-58
2023/01/11 00:07:06;;;;;;;0.63;0.63;;;;;;;7.59;100.00;96295.47;4962625;28;20117;-67
2023/01/11 00:09:33;;;;;;;0.65;0.65;;;;;;;7.59;100.00;96317.50;4965983;28;20051;-66
2023/01/11 00:12:00;;;;;;;0.60;0.60;;;;;;;7.50;100.00;96292.19;4965208;28;20078;-66
2023/01/11 00:14:26;;;;;;;0.60;0.60;;;;;;;7.27;100.00;96261.06;4965469;28;20051;-66
2023/01/11 00:16:53;;;;;;;0.60;0.60;;;;;;;7.58;100.00;96310.41;4980542;28;20055;-57
2023/01/11 00:19:19;;;;;;;0.60;0.60;;;;;;;7.60;100.00;96313.56;4965410;28;20090;-66
2023/01/11 00:21:48;;;;;;;0.70;0.70;;;;;;;7.24;100.00;96266.53;4965499;28;20109;-66
2023/01/11 00:24:15;;;;;;;0.60;0.60;;;;;;;7.59;100.00;96316.72;4964184;28;20062;-65
2023/01/11 00:26:41;;;;;;;0.63;0.63;;;;;;;7.53;100.00;96316.22;4965579;28;20058;-65
2023/01/11 00:29:08;;;;;;;0.60;0.60;;;;;;;7.49;100.00;96323.63;4965727;28;20047;-58
2023/01/11 00:31:34;;;;;;;0.60;0.60;;;;;;;7.49;100.00;96322.84;4964107;28;20058;-58
2023/01/11 00:34:01;;;;;;;0.60;0.60;;;;;;;7.46;100.00;96324.38;4965701;28;21024;-65
2023/01/11 00:36:28;;;;;;;0.60;0.60;;;;;;;7.37;100.00;96306.50;4965547;28;20445;-65
2023/01/11 00:38:54;;;;;;;0.60;0.60;;;;;;;7.34;100.00;96315.50;4965313;28;20499;-57
2023/01/11 00:49:41;;;;;;;0.70;0.70;;;;;;;7.40;100.00;96338.81;4965493;28;20058;-64
2023/01/11 00:52:09;;;;;;;0.60;0.60;;;;;;;7.42;100.00;96348.31;4965534;28;20472;-65
2023/01/11 00:54:39;;;;;;;0.60;0.60;;;;;;;7.44;100.00;96343.25;4964151;28;20445;-59
2023/01/11 00:57:07;;;;;;;0.60;0.60;;;;;;;7.44;100.00;96343.25;4964040;28;20058;-65
2023/01/11 00:59:35;;;;;;;0.60;0.60;;;;;;;7.42;100.00;96351.06;4966711;28;20086;-65
2023/01/11 01:02:02;;;;;;;0.60;0.60;;;;;;;7.18;100.00;96307.34;4969293;28;20074;-65
2023/01/11 01:04:29;;;;;;;0.60;0.60;;;;;;;6.79;100.00;96234.28;4967936;28;20051;-66
2023/01/11 01:06:56;;;;;;;0.60;0.60;;;;;;;7.40;100.00;96336.88;4969379;28;20157;-65
2023/01/11 01:09:23;;;;;;;0.60;0.60;;;;;;;7.37;100.00;96337.59;4967755;28;20173;-65
2023/01/11 01:11:49;;;;;;;0.60;0.60;;;;;;;7.37;100.00;96337.59;4968143;28;20055;-60
2023/01/11 01:14:27;;;;;;;0.60;0.60;;;;;;;7.44;100.00;96337.75;4968535;28;20137;-66
2023/01/11 01:17:14;;;;;;;0.60;0.60;;;;;;;7.46;100.00;96343.66;4969634;28;20134;-59
2023/01/11 01:19:40;;;;;;;0.60;0.60;;;;;;;7.27;100.00;96316.16;4968499;28;20121;-65
2023/01/11 01:22:07;;;;;;;0.60;0.60;;;;;;;6.94;100.00;96271.91;4968882;28;20078;-63
2023/01/11 01:24:34;;;;;;;0.60;0.60;;;;;;;7.38;100.00;96330.91;4968710;28;20054;-65
2023/01/11 01:27:00;;;;;;;0.60;0.60;;;;;;;7.44;100.00;96346.00;4968348;28;20078;-65
2023/01/11 01:29:27;;;;;;;0.60;0.60;;;;;;;7.30;100.00;96342.97;4968791;28;20113;-65
2023/01/11 01:31:53;;;;;;;0.60;0.60;;;;;;;7.44;100.00;96348.75;4968894;28;20313;-64
2023/01/11 01:34:20;;;;;;;0.60;0.60;;;;;;;7.44;100.00;96346.00;4968655;28;20497;-66
2023/01/11 01:36:47;;;;;;;0.60;0.60;;;;;;;7.35;100.00;96339.91;4968206;28;20109;-60
2023/01/11 01:39:13;;;;;;;0.60;0.60;;;;;;;7.42;100.00;96351.06;4967051;28;20105;-58
2023/01/11 01:41:40;;;;;;;0.60;0.60;;;;;;;7.37;100.00;96343.09;4967618;28;20453;-66
2023/01/11 01:44:44;;;;;;;0.60;0.60;;;;;;;7.43;100.00;96352.66;4968560;28;20149;-65
2023/01/11 01:47:12;;;;;;;0.70;0.70;;;;;;;5.40;100.00;96035.19;4968420;28;20102;-59
2023/01/11 01:49:39;;;;;;;0.60;0.60;;;;;;;7.38;100.00;96352.19;4968515;28;20050;-59
2023/01/11 01:52:08;;;;;;;0.60;0.60;;;;;;;7.34;100.00;96362.31;4967028;28;20065;-65
2023/01/11 01:54:39;;;;;;;0.60;0.60;;;;;;;6.99;100.00;96301.88;4968544;28;20051;-65
2023/01/11 01:57:12;;;;;;;0.60;0.60;;;;;;;7.36;100.00;96352.53;4966522;28;20086;-61
2023/01/11 01:59:40;;;;;;;0.60;0.60;;;;;;;7.29;100.00;96355.16;4968608;28;20109;-65
2023/01/11 02:02:07;;;;;;;0.60;0.60;;;;;;;7.15;100.00;96340.31;4967996;28;20070;-59
2023/01/11 02:04:43;;;;;;;0.60;0.60;;;;;;;7.20;100.00;96360.13;4968569;28;20050;-62
2023/01/11 07:26:47;;;;;;;0.60;0.60;;;;;;;6.17;100.00;96682.78;5089415;27;1362459;-57
2023/01/11 07:29:14;;;;;;;0.50;0.50;;;;;;;6.12;100.00;96628.06;5119696;28;20104;-61
2023/01/11 07:31:41;;;;;;;0.60;0.60;;;;;;;6.38;100.00;96631.13;5103153;27;20575;-62
2023/01/11 07:34:08;;;;;;;0.52;0.52;;;;;;;6.50;100.00;96666.00;5105983;28;20672;-56
2023/01/11 07:36:38;;;;;;;0.50;0.50;;;;;;;6.26;100.00;96672.44;5108847;27;20043;-59
2023/01/11 07:39:06;;;;;;;0.60;0.60;;;;;;;6.41;100.00;96682.69;5099806;28;20728;-60
2023/01/11 07:44:18;;;;;;;0.50;0.50;;;;;;;6.76;100.00;96691.06;5101329;28;20514;-59
2023/01/11 07:46:44;;;;;;;0.52;0.52;;;;;;;7.00;100.00;96696.41;5114706;28;20074;-56
2023/01/11 07:49:11;;;;;;;0.60;0.60;;;;;;;7.10;100.00;96696.66;5109439;28;20151;-60
2023/01/11 07:51:38;;;;;;;0.60;0.60;;;;;;;7.11;100.00;96701.00;5119450;27;20047;-58
2023/01/11 07:54:05;;;;;;;0.60;0.60;;;;;;;6.99;100.00;96712.13;5106626;28;20071;-58
2023/01/11 07:56:31;;;;;;;0.55;0.55;;;;;;;6.99;100.00;96722.31;5118000;28;20051;-58
2023/01/11 07:58:58;;;;;;;0.50;0.50;;;;;;;6.92;100.00;96725.72;5115744;28;20047;-59
2023/01/11 08:01:25;;;;;;;0.50;0.50;;;;;;;6.92;100.00;96711.16;5119511;27;20074;-54
2023/01/11 08:03:51;;;;;;;0.57;0.57;;;;;;;6.61;100.00;96683.59;5099403;28;20056;-54
2023/01/11 08:06:18;;;;;;;0.60;0.60;;;;;;;6.92;100.00;96742.25;5117538;28;20532;-56
2023/01/11 08:08:44;;;;;;;0.60;0.60;;;;;;;6.98;100.00;96740.81;5119992;28;20083;-55
2023/01/11 08:16:41;;;;;;;0.60;0.60;;;;;;;6.29;100.00;96604.94;5121291;27;20050;-58
2023/01/11 08:19:08;;;;;;;0.60;0.60;;;;;;;7.17;100.00;96751.13;5119332;28;20063;-58
2023/01/11 08:21:34;;;;;;;0.50;0.50;;;;;;;7.24;100.00;96757.59;5120447;27;20593;-59
2023/01/11 08:24:01;;;;;;;0.60;0.60;;;;;;;7.27;100.00;96751.38;5119308;28;20654;-60
2023/01/11 08:26:28;;;;;;;0.60;0.60;;;;;;;7.14;100.00;96735.31;5109752;28;20589;-53
2023/01/11 08:28:54;;;;;;;0.60;0.60;;;;;;;7.29;100.00;96753.78;5100442;28;20583;-56
2023/01/11 08:31:21;;;;;;;0.60;0.60;;;;;;;7.25;100.00;96734.44;5103940;28;20062;-57
2023/01/11 08:33:48;;;;;;;0.50;0.50;;;;;;;7.01;100.00;96759.38;5112725;27;20051;-57
2023/01/11 08:36:15;;;;;;;0.60;0.60;;;;;;;7.19;100.00;96763.38;5111098;28;20452;-62
2023/01/11 08:38:42;;;;;;;0.60;0.60;;;;;;;7.14;100.00;96754.59;5105474;28;20096;-57
2023/01/11 08:41:13;;;;;;;0.60;0.60;;;;;;;7.38;100.00;96757.16;5107217;28;20559;-63
2023/01/11 08:43:40;;;;;;;0.60;0.60;;;;;;;5.91;100.00;96598.03;5088892;28;20059;-58
2023/01/11 08:46:08;;;;;;;0.55;0.55;;;;;;;7.29;100.00;96759.28;5097447;28;20051;-56
2023/01/11 08:48:35;;;;;;;0.63;0.63;;;;;;;7.44;100.00;96762.06;5088263;28;20052;-62
2023/01/11 08:51:01;;;;;;;0.60;0.60;;;;;;;7.71;100.00;96758.34;5098234;28;20079;-63
2023/01/11 08:53:28;;;;;;;0.60;0.60;;;;;;;7.81;100.00;96764.47;5103004;28;20081;-58
2023/01/11 08:55:55;;;;;;;0.60;0.60;;;;;;;7.83;100.00;96773.97;5105452;28;20583;-56
2023/01/11 08:58:22;;;;;;;0.60;0.60;;;;;;;7.60;100.00;96702.19;5104485;28;20430;-61
2023/01/11 09:00:48;;;;;;;0.60;0.60;;;;;;;7.83;100.00;96726.31;5105482;28;20052;-57
2023/01/11 09:03:15;;;;;;;0.60;0.60;;;;;;;8.02;100.00;96727.13;5100491;28;20595;-55
2023/01/11 09:05:41;;;;;;;0.60;0.60;;;;;;;8.19;100.00;96775.59;5105015;28;20138;-56
2023/01/11 09:08:08;;;;;;;0.60;0.60;;;;;;;6.15;100.00;96441.19;5104761;28;20059;-60
2023/01/11 09:10:35;;;;;;;0.70;0.70;;;;;;;8.40;100.00;96781.56;5106355;28;20040;-56
2023/01/11 09:13:02;;;;;;;0.63;0.63;;;;;;;8.11;100.00;96773.84;5105424;28;20059;-57
2023/01/11 09:15:29;;;;;;;0.70;0.70;;;;;;;7.98;100.00;96740.06;5104959;28;20041;-63
2023/01/11 09:17:55;;;;;;;0.60;0.60;;;;;;;8.11;100.00;96774.59;5106048;28;20090;-63
2023/01/11 09:20:22;;;;;;;0.63;0.63;;;;;;;8.25;100.00;96790.72;5106443;28;20105;-56
2023/01/11 09:22:50;;;;;;;0.60;0.60;;;;;;;8.20;100.00;96799.25;5099409;28;20143;-56
2023/01/11 09:25:19;;;;;;;0.60;0.60;;;;;;;8.25;100.00;96796.25;5105482;28;20143;-63
2023/01/11 09:27:48;;;;;;;0.70;0.70;;;;;;;7.34;100.00;96673.63;5105801;28;20142;-55
2023/01/11 09:30:17;;;;;;;0.63;0.63;;;;;;;7.64;100.00;96766.47;5104539;28;20071;-63
2023/01/11 09:32:48;;;;;;;0.70;0.70;;;;;;;8.04;100.00;96804.00;5105391;28;20074;-60
2023/01/11 09:35:15;;;;;;;0.60;0.60;;;;;;;8.20;100.00;96807.53;5104924;27;20048;-58
2023/01/11 09:37:50;;;;;;;0.60;0.60;;;;;;;7.95;100.00;96792.38;5104744;28;20091;-54
2023/01/11 09:40:25;;;;;;;0.60;0.60;;;;;;;8.03;100.00;96777.59;5105631;28;20517;-55
2023/01/11 09:42:56;;;;;;;0.60;0.60;;;;;;;8.15;100.00;96766.41;5092865;28;20044;-58
2023/01/11 09:45:27;;;;;;;0.60;0.60;;;;;;;8.37;100.00;96771.25;5085924;28;20137;-63
2023/01/11 09:48:25;;;;;;;0.70;0.70;;;;;;;8.19;100.00;96748.00;5104932;28;20052;-56
2023/01/11 09:50:52;;;;;;;0.70;0.70;;;;;;;8.26;100.00;96754.50;5100550;28;20060;-58
2023/01/11 09:53:26;;;;;;;0.60;0.60;;;;;;;8.45;100.00;96778.53;5102304;28;20058;-60
2023/01/11 09:55:56;;;;;;;0.70;0.70;;;;;;;8.37;100.00;96765.75;5097287;28;20510;-55
2023/01/11 09:58:30;;;;;;;0.60;0.60;;;;;;;8.48;100.00;96775.03;5096596;28;20506;-59
2023/01/11 10:01:05;;;;;;;0.68;0.68;;;;;;;8.51;100.00;96771.56;5102399;28;20052;-58
2023/01/11 10:04:24;;;;;;;0.60;0.60;;;;;;;8.62;100.00;96778.09;5104644;28;20051;-56
2023/01/11 10:07:29;;;;;;;0.68;0.68;;;;;;;8.71;100.00;96775.91;5096897;28;20044;-63
2023/01/11 10:10:15;;;;;;;0.70;0.70;;;;;;;8.60;100.00;96774.91;5085339;28;20056;-59
2023/01/11 10:13:47;;;;;;;0.70;0.70;;;;;;;8.77;100.00;96779.97;5084811;28;20139;-63
2023/01/11 10:16:51;;;;;;;0.60;0.60;;;;;;;8.63;100.00;96790.75;5082955;28;20104;-57
2023/01/11 10:19:46;;;;;;;0.60;0.60;;;;;;;8.71;100.00;96773.16;5103377;28;20668;-57
2023/01/11 10:22:18;;;;;;;0.68;0.68;;;;;;;8.86;100.00;96786.06;5104326;28;20065;-58
2023/01/11 10:24:54;;;;;;;0.70;0.70;;;;;;;7.89;100.00;96628.38;5105040;28;20051;-60
2023/01/11 10:27:29;;;;;;;0.65;0.65;;;;;;;8.80;100.00;96785.53;5102626;28;20100;-57
2023/01/11 10:30:31;;;;;;;0.63;0.63;;;;;;;7.79;100.00;96755.75;5104926;28;20054;-56
2023/01/11 10:42:04;;;;;;;0.60;0.60;;;;;;;7.43;100.00;96788.00;5104222;28;20074;-56
2023/01/11 10:44:57;;;;;;;0.70;0.70;;;;;;;7.69;100.00;96791.00;5104923;28;20075;-56
2023/01/11 10:47:29;;;;;;;0.60;0.60;;;;;;;7.44;100.00;96728.19;5089573;28;20097;-58
2023/01/11 10:50:40;;;;;;;0.70;0.70;;;;;;;8.18;100.00;96782.25;5091695;28;20059;-55
2023/01/11 10:53:19;;;;;;;0.70;0.70;;;;;;;8.29;100.00;96781.34;5083457;28;20055;-63
2023/01/11 10:56:04;;;;;;;0.60;0.60;;;;;;;8.37;100.00;96782.28;5085472;28;20055;-61
2023/01/11 10:58:53;;;;;;;0.60;0.60;;;;;;;8.30;100.00;96782.94;5085042;28;20043;-60
2023/01/11 11:01:49;;;;;;;0.60;0.60;;;;;;;8.38;100.00;96781.13;5086279;28;20054;-57
2023/01/11 11:04:48;;;;;;;0.70;0.70;;;;;;;8.25;100.00;96777.72;5088950;28;20122;-56
2023/01/11 11:07:43;;;;;;;0.63;0.63;;;;;;;8.44;100.00;96774.19;5098083;28;20473;-56
2023/01/11 11:10:28;;;;;;;0.70;0.70;;;;;;;8.57;100.00;96775.59;5084882;28;20083;-55
2023/01/11 11:13:12;;;;;;;0.70;0.70;;;;;;;8.66;100.00;96773.44;5092414;28;20138;-58
2023/01/11 11:15:42;;;;;;;;;;;;;;;8.65;100.00;96771.81;5102814;28;20120;-69
2023/01/11 11:18:09;;;;;;;0.60;0.60;;;;;;;8.55;100.00;96772.44;5100230;28;19956;-71
2023/01/11 11:20:35;;;;;;;0.60;0.60;;;;;;;8.59;100.00;96773.28;5102979;28;20055;-57
2023/01/11 11:23:02;;;;;;;0.70;0.70;;;;;;;7.99;100.00;96660.88;5090358;28;20101;-58
2023/01/11 11:25:36;;;;;;;0.70;0.70;;;;;;;8.73;100.00;96773.56;5083445;28;20507;-57
2023/01/11 11:28:06;;;;;;;0.70;0.70;;;;;;;8.63;100.00;96779.69;5083275;28;20052;-56
2023/01/11 11:30:45;;;;;;;0.70;0.70;;;;;;;8.60;100.00;96774.91;5083495;28;20542;-73
2023/01/11 11:33:21;;;;;;;0.60;0.60;;;;;;;6.37;100.00;96414.19;5083711;28;20048;-57
2023/01/11 11:35:57;;;;;;;0.70;0.70;;;;;;;8.68;100.00;96782.13;5087590;28;20084;-60
2023/01/11 11:38:29;;;;;;;0.70;0.70;;;;;;;8.09;100.00;96693.41;5083665;28;20084;-74
2023/01/11 11:41:05;;;;;;;0.70;0.70;;;;;;;8.49;100.00;96784.91;5083994;28;20106;-70
2023/01/11 11:43:40;;;;;;;0.60;0.60;;;;;;;6.51;100.00;96464.84;5083328;28;20083;-77
2023/01/11 11:46:13;;;;;;;0.70;0.70;;;;;;;8.68;100.00;96782.94;5083771;28;20113;-74
2023/01/11 11:49:30;;;;;;;0.70;0.70;;;;;;;8.06;100.00;96782.38;5083251;28;20088;-59
2023/01/11 11:51:59;;;;;;;0.70;0.70;;;;;;;8.33;100.00;96786.97;5087185;28;20112;-59
2023/01/11 11:54:36;;;;;;;0.60;0.60;;;;;;;8.55;100.00;96777.97;5103800;28;20556;-74
2023/01/11 11:57:18;;;;;;;0.60;0.60;;;;;;;8.55;100.00;96784.25;5102240;28;20105;-70
2023/01/11 11:59:52;;;;;;;0.60;0.60;;;;;;;8.60;100.00;96780.44;5103933;28;20056;-74
2023/01/11 12:02:30;;;;;;;0.60;0.60;;;;;;;8.62;100.00;96783.59;5088077;28;20097;-59
2023/01/11 12:05:03;;;;;;;0.70;0.70;;;;;;;8.59;100.00;96779.63;5089935;28;20055;-59
2023/01/11 12:07:43;;;;;;;0.70;0.70;;;;;;;8.33;100.00;96742.81;5089193;28;20066;-73
2023/01/11 12:10:23;;;;;;;0.60;0.60;;;;;;;8.67;100.00;96786.06;5100267;28;20418;-60
2023/01/11 12:12:57;;;;;;;0.70;0.70;;;;;;;8.71;100.00;96781.44;5100034;28;20606;-56
2023/01/11 12:15:29;;;;;;;0.70;0.70;;;;;;;8.71;100.00;96792.50;5106622;28;20073;-57
2023/01/11 12:18:25;;;;;;;0.60;0.60;;;;;;;8.73;100.00;96773.56;5106765;28;20040;-59
2023/01/11 12:20:53;;;;;;;0.70;0.70;;;;;;;8.45;100.00;96734.38;5098335;28;20619;-57
2023/01/11 12:23:23;;;;;;;0.70;0.70;;;;;;;8.66;100.00;96778.97;5106066;28;20081;-58
2023/01/11 12:26:11;;;;;;;0.70;0.70;;;;;;;8.19;100.00;96767.31;5106339;28;20063;-58
2023/01/11 12:28:50;;;;;;;0.60;0.60;;;;;;;7.63;100.00;96773.13;5096965;28;20141;-57
2023/01/11 12:31:39;;;;;;;0.60;0.60;;;;;;;7.47;100.00;96775.13;5105643;28;20047;-55
2023/01/11 12:34:21;;;;;;;0.60;0.60;;;;;;;7.28;100.00;96780.53;5105233;28;20090;-56
2023/01/11 12:36:56;;;;;;;0.60;0.60;;;;;;;7.31;100.00;96793.59;5107149;28;20039;-57
2023/01/11 12:39:31;;;;;;;0.60;0.60;;;;;;;7.34;100.00;96794.84;5107297;28;20055;-63
2023/01/11 12:42:09;;;;;;;0.60;0.60;;;;;;;7.20;100.00;96809.06;5105494;28;20047;-58
2023/01/11 12:44:56;;;;;;;0.60;0.60;;;;;;;7.20;100.00;96795.28;5105332;28;20043;-57
2023/01/11 12:47:35;;;;;;;0.70;0.70;;;;;;;7.12;100.00;96793.50;5096313;28;20543;-57
2023/01/11 12:50:19;;;;;;;0.60;0.60;;;;;;;7.20;100.00;96795.28;5106073;28;20043;-59
2023/01/11 12:53:13;;;;;;;0.60;0.60;;;;;;;7.14;100.00;96802.22;5106140;28;20067;-57
2023/01/11 12:56:03;;;;;;;0.60;0.60;;;;;;;7.11;100.00;96804.88;5106535;28;20497;-57
2023/01/11 12:59:03;;;;;;;0.50;0.50;;;;;;;6.85;100.00;96802.59;5102084;28;20048;-56
2023/01/11 13:01:47;;;;;;;0.70;0.70;;;;;;;6.66;100.00;96807.97;5095762;28;20048;-55
2023/01/11 13:04:57;;;;;;;0.60;0.60;;;;;;;6.38;100.00;96776.91;5099484;28;20101;-57
2023/01/11 13:08:08;;;;;;;0.50;0.50;;;;;;;6.35;100.00;96799.63;5104901;28;20056;-57
2023/01/11 13:10:53;;;;;;;0.60;0.60;;;;;;;6.60;100.00;96823.13;5086158;28;20051;-58
2023/01/11 13:14:01;;;;;;;0.57;0.57;;;;;;;6.60;100.00;96831.38;5103031;28;20447;-63
2023/01/11 13:17:00;;;;;;;0.60;0.60;;;;;;;6.64;100.00;96837.78;5085444;28;20088;-57
2023/01/11 13:19:45;;;;;;;0.60;0.60;;;;;;;6.48;100.00;96814.91;5100844;28;20066;-59
2023/01/11 13:22:18;;;;;;;0.60;0.60;;;;;;;6.46;100.00;96842.00;5090963;28;20044;-59
2023/01/11 13:24:48;;;;;;;0.60;0.60;;;;;;;5.71;100.00;96705.38;5084980;28;20105;-57
2023/01/11 13:27:23;;;;;;;0.60;0.60;;;;;;;6.32;100.00;96830.56;5105028;27;20061;-62
2023/01/11 13:29:54;;;;;;;0.50;0.50;;;;;;;6.42;100.00;96846.56;5105352;27;20453;-56
2023/01/11 13:32:37;;;;;;;0.60;0.60;;;;;;;6.52;100.00;96839.78;5102453;28;20101;-59
2023/01/11 13:35:14;;;;;;;0.60;0.60;;;;;;;6.36;100.00;96825.97;5087554;28;20055;-59
2023/01/11 13:38:10;;;;;;;0.50;0.50;;;;;;;6.35;100.00;96851.88;5096856;28;20053;-56
2023/01/11 13:40:51;;;;;;;0.60;0.60;;;;;;;6.10;100.00;96822.84;5092195;27;20051;-56
2023/01/11 13:43:44;;;;;;;0.60;0.60;;;;;;;6.34;100.00;96854.97;5095499;28;20055;-58
2023/01/11 13:46:20;;;;;;;0.52;0.52;;;;;;;6.09;100.00;96812.97;5097651;28;20072;-59
2023/01/11 13:49:07;;;;;;;0.60;0.60;;;;;;;5.77;100.00;96758.97;5103300;28;20512;-57
2023/01/11 13:51:40;;;;;;;0.50;0.50;;;;;;;6.50;100.00;96870.38;5099115;28;20062;-61
2023/01/11 13:54:15;;;;;;;0.50;0.50;;;;;;;6.51;100.00;96861.00;5105521;27;20057;-60
2023/01/11 13:56:49;;;;;;;0.60;0.60;;;;;;;6.54;100.00;96860.31;5096328;28;20079;-57
2023/01/11 13:59:44;;;;;;;0.60;0.60;;;;;;;6.58;100.00;96866.69;5093111;28;20075;-57
2023/01/11 14:02:57;;;;;;;0.55;0.55;;;;;;;6.40;100.00;96832.38;5096813;28;20514;-58
2023/01/11 14:05:27;;;;;;;0.50;0.50;;;;;;;4.76;100.00;96565.16;5060884;28;20064;-60
2023/01/11 14:08:24;;;;;;;0.60;0.60;;;;;;;6.70;100.00;96871.38;5089614;28;20083;-62
2023/01/11 14:11:20;;;;;;;0.60;0.60;;;;;;;6.71;100.00;96879.28;5088130;28;20116;-60
2023/01/11 14:14:16;;;;;;;0.60;0.60;;;;;;;6.48;100.00;96878.19;5084254;28;20128;-58
2023/01/11 14:17:03;;;;;;;0.60;0.60;;;;;;;6.32;100.00;96885.59;5100132;28;20079;-65
2023/01/11 14:19:42;;;;;;;0.60;0.60;;;;;;;5.51;100.00;96789.53;5084833;28;20055;-58
2023/01/11 14:22:22;;;;;;;0.60;0.60;;;;;;;6.08;100.00;96896.59;5102379;28;20468;-58
2023/01/11 14:24:57;;;;;;;0.57;0.57;;;;;;;5.86;100.00;96836.59;5103646;28;20097;-65
2023/01/11 14:27:29;;;;;;;0.60;0.60;;;;;;;6.21;100.00;96892.72;5097972;28;20059;-59
2023/01/11 14:30:11;;;;;;;0.60;0.60;;;;;;;6.29;100.00;96897.28;5104707;28;20059;-65
2023/01/11 14:32:38;;;;;;;0.60;0.60;;;;;;;6.12;100.00;96892.00;5092791;28;20066;-58
2023/01/11 14:35:32;;;;;;;0.60;0.60;;;;;;;6.31;100.00;96899.69;5104515;28;20494;-57
2023/01/11 14:38:15;;;;;;;0.57;0.57;;;;;;;6.42;100.00;96896.09;5084014;28;20059;-56
2023/01/11 14:40:44;;;;;;;0.50;0.50;;;;;;;6.44;100.00;96899.31;5083883;28;20063;-57
2023/01/11 14:43:36;;;;;;;0.65;0.65;;;;;;;6.47;100.00;96898.59;5082009;28;20120;-58
2023/01/11 14:46:18;;;;;;;0.57;0.57;;;;;;;6.46;100.00;96899.75;5084728;28;20067;-58
2023/01/11 14:49:09;;;;;;;0.50;0.50;;;;;;;6.47;100.00;96898.59;5104206;28;20108;-60
2023/01/11 14:51:42;;;;;;;0.60;0.60;;;;;;;6.23;100.00;96901.38;5103788;28;20078;-56
2023/01/11 14:54:21;;;;;;;0.50;0.50;;;;;;;6.25;100.00;96907.34;5094080;28;20071;-57
2023/01/11 14:56:51;;;;;;;0.60;0.60;;;;;;;6.34;100.00;96910.78;5087568;28;20051;-58
2023/01/11 14:59:35;;;;;;;0.50;0.50;;;;;;;6.44;100.00;96910.31;5093071;28;20080;-56
2023/01/11 15:02:01;;;;;;;;;;;;;;;6.47;100.00;96909.59;5100865;28;20044;-69
2023/01/11 15:04:35;;;;;;;0.60;0.60;;;;;;;6.35;100.00;96906.91;5103181;28;20019;-66
2023/01/11 15:07:24;;;;;;;0.55;0.55;;;;;;;6.35;100.00;96923.41;5097652;28;20514;-58
2023/01/11 15:09:52;;;;;;;0.50;0.50;;;;;;;6.38;100.00;96916.38;5083930;28;20052;-57
2023/01/11 15:12:24;;;;;;;0.50;0.50;;;;;;;6.36;100.00;96919.50;5090439;28;20097;-66
2023/01/11 15:14:55;;;;;;;0.60;0.60;;;;;;;6.06;100.00;96871.41;5089408;28;20047;-60
2023/01/11 15:20:14;;;;;;;0.60;0.60;;;;;;;6.34;100.00;96910.00;5097578;28;20093;-58
2023/01/11 15:22:41;;;;;;;0.60;0.60;;;;;;;5.90;100.00;96867.75;5089916;28;20043;-62
2023/01/11 15:25:26;;;;;;;0.55;0.55;;;;;;;5.98;100.00;96886.06;5103103;28;20125;-60
2023/01/11 15:27:54;;;;;;;0.60;0.60;;;;;;;4.86;100.00;96723.03;5091062;28;20556;-60
2023/01/11 15:30:30;;;;;;;0.60;0.60;;;;;;;6.21;100.00;96922.97;5087685;28;20422;-61
2023/01/11 15:33:15;;;;;;;0.50;0.50;;;;;;;6.28;100.00;96949.84;5103763;28;20043;-60
2023/01/11 15:35:54;;;;;;;0.60;0.60;;;;;;;6.38;100.00;96943.91;5104381;28;20156;-56
2023/01/11 15:38:42;;;;;;;0.50;0.50;;;;;;;6.29;100.00;96938.53;5101259;28;20048;-61
2023/01/11 15:44:34;;;;;;;0.60;0.60;;;;;;;6.28;100.00;96950.66;5084301;28;20563;-55
2023/01/11 15:47:16;;;;;;;0.50;0.50;;;;;;;6.33;100.00;96958.69;5083462;28;20060;-56
2023/01/11 15:50:12;;;;;;;0.60;0.60;;;;;;;6.41;100.00;96962.47;5088073;28;20048;-59
2023/01/11 15:53:32;;;;;;;0.50;0.50;;;;;;;6.42;100.00;96950.31;5071365;28;20132;-56
2023/01/11 15:56:17;;;;;;;0.60;0.60;;;;;;;6.18;100.00;96951.94;5043825;28;20188;-56
2023/01/11 15:58:56;;;;;;;0.50;0.50;;;;;;;5.98;100.00;96957.53;5088057;28;20059;-60
2023/01/11 16:01:27;;;;;;;0.50;0.50;;;;;;;5.75;100.00;96964.59;5087965;28;20048;-60
2023/01/11 16:04:31;;;;;;;0.50;0.50;;;;;;;5.80;100.00;96961.63;5084866;28;20052;-58
2023/01/11 16:07:03;;;;;;;0.60;0.60;;;;;;;5.66;100.00;96936.41;5016402;28;20084;-56
2023/01/11 16:09:42;;;;;;;0.50;0.50;;;;;;;5.70;100.00;96956.56;5045983;28;20060;-57
2023/01/11 16:12:38;;;;;;;0.50;0.50;;;;;;;5.65;100.00;96959.53;5047272;28;20087;-56
2023/01/11 16:15:34;;;;;;;0.50;0.50;;;;;;;5.54;100.00;96961.91;5048575;28;20118;-60
2023/01/11 16:18:24;;;;;;;0.50;0.50;;;;;;;5.37;100.00;96895.38;5067041;28;20048;-60
2023/01/11 16:21:01;;;;;;;0.52;0.52;;;;;;;5.76;100.00;96955.19;5067173;28;20049;-58
2023/01/11 16:23:30;;;;;;;0.50;0.50;;;;;;;5.73;100.00;96955.88;5066725;28;20925;-61
2023/01/11 16:25:58;;;;;;;0.50;0.50;;;;;;;5.73;100.00;96964.94;5066373;28;20052;-60
2023/01/11 16:28:26;;;;;;;0.60;0.60;;;;;;;5.34;100.00;96918.03;5066540;28;20148;-59
2023/01/11 16:31:00;;;;;;;0.50;0.50;;;;;;;5.65;100.00;96957.59;5067034;28;20049;-60
2023/01/11 16:33:29;;;;;;;0.52;0.52;;;;;;;5.65;100.00;96970.53;5066867;28;20050;-60
2023/01/11 16:36:25;;;;;;;0.50;0.50;;;;;;;5.60;100.00;96965.22;5065296;28;20462;-57
2023/01/11 16:39:09;;;;;;;0.50;0.50;;;;;;;5.69;100.00;96974.22;5049061;28;20638;-56
2023/01/11 16:41:50;;;;;;;0.50;0.50;;;;;;;5.64;100.00;96977.16;5063957;28;20418;-60
2023/01/11 16:44:42;;;;;;;0.50;0.50;;;;;;;2.89;100.00;96557.06;5066665;28;20052;-61
2023/01/11 16:47:20;;;;;;;0.50;0.50;;;;;;;5.43;100.00;96973.66;5059222;28;20117;-55
2023/01/11 16:50:18;;;;;;;0.50;0.50;;;;;;;3.67;100.00;96703.94;5066393;28;20048;-58
2023/01/11 16:52:47;;;;;;;0.50;0.50;;;;;;;5.29;100.00;96967.69;5066197;28;20503;-57
2023/01/11 16:56:04;;;;;;;0.50;0.50;;;;;;;5.39;100.00;96972.75;5066392;28;20131;-60
2023/01/11 16:58:36;;;;;;;0.50;0.50;;;;;;;5.43;100.00;96962.69;5042813;28;20053;-56
2023/01/11 17:01:06;;;;;;;0.50;0.50;;;;;;;5.43;100.00;96966.25;5065269;28;20484;-57
2023/01/11 17:03:51;;;;;;;0.50;0.50;;;;;;;5.48;100.00;96938.56;5065154;28;20060;-55
2023/01/11 17:06:23;;;;;;;0.60;0.60;;;;;;;5.73;100.00;96967.69;5066860;28;20052;-57
2023/01/11 17:08:55;;;;;;;0.50;0.50;;;;;;;5.75;100.00;96967.34;5066007;28;20504;-60
2023/01/11 17:11:21;;;;;;;0.50;0.50;;;;;;;5.79;100.00;96968.25;5065890;28;20056;-61
2023/01/11 17:14:12;;;;;;;0.50;0.50;;;;;;;5.92;100.00;96975.41;5066159;28;20109;-61
2023/01/11 17:16:43;;;;;;;0.50;0.50;;;;;;;5.86;100.00;96982.28;5064860;28;20512;-56
2023/01/11 17:19:19;;;;;;;0.50;0.50;;;;;;;5.87;100.00;96973.69;5065442;28;20059;-60
2023/01/11 17:22:13;;;;;;;0.50;0.50;;;;;;;5.91;100.00;96984.81;5065916;28;20056;-60
2023/01/11 17:24:42;;;;;;;0.60;0.60;;;;;;;5.96;100.00;96987.31;5065363;28;20048;-60
2023/01/11 17:27:18;;;;;;;0.50;0.50;;;;;;;5.91;100.00;96998.56;5065562;28;20091;-63
2023/01/11 17:29:46;;;;;;;0.50;0.50;;;;;;;5.93;100.00;96985.25;5065388;28;20580;-56
2023/01/11 17:32:20;;;;;;;0.50;0.50;;;;;;;5.86;100.00;96987.78;5065714;28;20562;-56
2023/01/11 17:34:49;;;;;;;0.60;0.60;;;;;;;5.94;100.00;96995.13;5065176;28;20053;-60
2023/01/11 17:37:18;;;;;;;0.60;0.60;;;;;;;5.89;100.00;96993.41;5064586;28;20059;-57
2023/01/11 17:39:52;;;;;;;0.60;0.60;;;;;;;5.57;100.00;96935.69;5064067;28;20603;-56
2023/01/11 17:45:18;;;;;;;0.50;0.50;;;;;;;5.96;100.00;96981.81;5064780;28;20052;-61
2023/01/11 17:47:52;;;;;;;0.50;0.50;;;;;;;5.85;100.00;96966.91;5065616;28;20057;-58
2023/01/11 17:50:28;;;;;;;0.50;0.50;;;;;;;6.04;100.00;96997.41;5065024;28;20074;-61
2023/01/11 17:53:16;;;;;;;0.60;0.60;;;;;;;6.07;100.00;97010.47;5065470;28;20064;-56
2023/01/11 17:55:57;;;;;;;0.50;0.50;;;;;;;6.14;100.00;97005.22;5060314;28;20503;-57
2023/01/11 17:58:34;;;;;;;0.60;0.60;;;;;;;6.17;100.00;96999.03;5056599;28;20066;-56
2023/01/11 18:01:06;;;;;;;0.50;0.50;;;;;;;6.22;100.00;97012.56;5063884;28;20050;-61
2023/01/11 18:03:41;;;;;;;0.60;0.60;;;;;;;6.26;100.00;97016.22;5065234;28;20048;-56
2023/01/11 18:06:38;;;;;;;0.50;0.50;;;;;;;6.25;100.00;97005.56;5063773;28;20511;-57
2023/01/11 18:09:18;;;;;;;0.50;0.50;;;;;;;6.04;100.00;96989.16;5059094;28;20061;-55
2023/01/11 18:11:45;;;;;;;0.60;0.60;;;;;;;6.31;100.00;97021.50;5065291;28;20148;-56
2023/01/11 18:14:24;;;;;;;0.60;0.60;;;;;;;5.97;100.00;96983.44;5065185;28;20056;-56